Time;durP1;ratioP1;P1;durP2;ratioP2;P2;SDS_P1;SDS_P2;PMS_P1;PMS_P2;Temp;Humidity;BMP_temperature;BMP_pressure;BME280_temperature;BME280_humidity;BME280_pressure;Samples;Min_cycle;Max_cycle;Signal;HPM_P1;HPM_P2
2021/12/18 00:00:35;;;;;;;8.18;5.10;;;2.50;91.60;;;;;;5070791;28;20025;-65
2021/12/18 00:03:00;;;;;;;8.10;5.10;;;2.50;91.50;;;;;;5070429;28;20083;-65
2021/12/18 00:05:26;;;;;;;10.38;5.40;;;2.50;91.60;;;;;;5070790;28;20555;-64
2021/12/18 00:07:52;;;;;;;7.75;5.00;;;2.50;91.60;;;;;;5065548;28;20469;-65
2021/12/18 00:10:23;;;;;;;8.80;5.10;;;2.50;91.70;;;;;;5052454;28;20032;-66
2021/12/18 00:12:50;;;;;;;7.35;4.25;;;2.50;91.70;;;;;;5052513;28;20230;-64
2021/12/18 00:15:17;;;;;;;7.78;4.55;;;2.50;91.60;;;;;;5053351;28;20049;-68
2021/12/18 00:17:43;;;;;;;7.32;4.25;;;2.50;91.70;;;;;;5055252;28;20017;-64
2021/12/18 00:20:10;;;;;;;7.50;4.53;;;2.50;91.60;;;;;;5070300;28;20478;-65
2021/12/18 00:22:35;;;;;;;7.40;4.47;;;2.50;91.30;;;;;;5057786;28;20033;-65
2021/12/18 00:25:01;;;;;;;7.45;4.45;;;2.50;91.30;;;;;;5052046;28;20033;-65
2021/12/18 00:27:27;;;;;;;7.28;4.32;;;2.50;91.40;;;;;;5052043;28;20191;-65
2021/12/18 00:29:52;;;;;;;7.57;4.47;;;2.50;91.50;;;;;;5063504;28;20143;-65
2021/12/18 00:32:18;;;;;;;6.55;4.07;;;2.50;91.40;;;;;;5070935;28;20115;-65
2021/12/18 00:34:44;;;;;;;7.88;4.35;;;2.50;91.40;;;;;;5054769;28;20107;-65
2021/12/18 00:37:09;;;;;;;7.22;4.50;;;2.50;91.30;;;;;;5051935;28;20040;-65
2021/12/18 00:39:43;;;;;;;7.57;4.20;;;2.50;91.40;;;;;;5051803;28;20033;-65
2021/12/18 00:44:54;;;;;;;6.82;4.25;;;2.50;91.30;;;;;;5050428;28;20032;-66
2021/12/18 00:47:20;;;;;;;7.75;4.63;;;2.50;91.20;;;;;;5071749;28;20033;-65
2021/12/18 00:49:45;;;;;;;7.60;5.00;;;2.50;91.30;;;;;;5071717;28;20384;-65
2021/12/18 00:52:12;;;;;;;7.72;5.03;;;2.50;91.60;;;;;;5069733;28;20028;-65
2021/12/18 00:54:37;;;;;;;7.75;5.40;;;2.50;91.20;;;;;;5051526;28;20028;-65
2021/12/18 00:57:04;;;;;;;8.27;5.88;;;2.50;91.30;;;;;;5067726;28;20033;-64
2021/12/18 00:59:32;;;;;;;8.38;5.40;;;2.50;91.40;;;;;;5070288;28;20029;-65
2021/12/18 01:01:57;;;;;;;7.80;5.03;;;2.40;91.30;;;;;;5071457;28;20024;-66
2021/12/18 01:04:23;;;;;;;10.55;5.10;;;2.40;91.40;;;;;;5069455;28;20456;-64
2021/12/18 01:06:49;;;;;;;8.13;5.00;;;2.30;91.50;;;;;;5051372;28;20341;-65
2021/12/18 01:09:18;;;;;;;8.20;5.40;;;2.30;91.70;;;;;;5052267;28;20432;-66
2021/12/18 01:11:45;;;;;;;8.30;5.30;;;2.30;91.80;;;;;;5052396;28;20028;-65
2021/12/18 01:24:31;;;;;;;8.30;5.88;;;2.10;92.50;;;;;;5055469;28;20146;-65
2021/12/18 01:26:57;;;;;;;9.15;5.63;;;2.10;92.60;;;;;;5051209;28;20482;-65
2021/12/18 01:29:23;;;;;;;8.95;5.85;;;2.10;92.70;;;;;;5063022;28;20106;-65
2021/12/18 01:31:49;;;;;;;8.70;5.82;;;2.10;92.80;;;;;;5071296;28;20063;-66
2021/12/18 01:34:14;;;;;;;8.77;6.28;;;2.00;92.90;;;;;;5060202;28;20526;-64
2021/12/18 01:36:40;;;;;;;9.73;6.22;;;2.00;93.00;;;;;;5051170;28;20104;-67
2021/12/18 01:39:06;;;;;;;8.77;5.57;;;2.00;93.00;;;;;;5051603;28;20032;-68
2021/12/18 01:41:46;;;;;;;8.63;5.55;;;2.00;93.10;;;;;;5051061;28;20082;-65
2021/12/18 01:52:35;;;;;;;8.20;5.75;;;1.90;93.20;;;;;;5051235;28;20128;-64
2021/12/18 01:55:01;;;;;;;8.65;5.90;;;1.90;93.30;;;;;;5056497;28;20108;-65
2021/12/18 01:57:28;;;;;;;8.82;6.13;;;1.90;93.40;;;;;;5067628;28;20452;-65
2021/12/18 01:59:54;;;;;;;8.05;5.53;;;1.90;93.50;;;;;;5071101;28;20767;-64
2021/12/18 02:02:20;;;;;;;8.02;5.60;;;1.90;93.60;;;;;;5071732;28;20036;-64
2021/12/18 02:04:46;;;;;;;7.90;5.30;;;1.90;93.60;;;;;;5074786;28;20033;-64
2021/12/18 02:07:14;;;;;;;9.05;5.80;;;1.90;93.60;;;;;;5072227;28;20048;-65
2021/12/18 02:12:13;;;;;;;8.23;5.45;;;1.90;93.50;;;;;;5074665;28;20031;-65
2021/12/18 02:23:00;;;;;;;7.78;5.22;;;1.90;93.50;;;;;;5054489;28;20032;-64
2021/12/18 02:25:26;;;;;;;7.35;5.03;;;1.90;93.50;;;;;;5059278;28;20746;-64
2021/12/18 02:27:55;;;;;;;8.07;5.35;;;1.90;93.60;;;;;;5074293;28;20383;-64
2021/12/18 02:30:21;;;;;;;8.40;5.25;;;1.90;93.60;;;;;;5062788;28;20032;-65
2021/12/18 02:32:49;;;;;;;7.85;5.20;;;1.90;93.70;;;;;;5056273;28;20025;-64
2021/12/18 02:35:40;;;;;;;7.32;4.72;;;1.90;93.70;;;;;;5074508;28;20781;-65
2021/12/18 02:38:33;;;;;;;7.32;4.50;;;1.90;93.70;;;;;;5072954;28;20383;-65
2021/12/18 02:41:09;;;;;;;7.38;4.88;;;1.90;93.80;;;;;;5073813;28;20031;-65
2021/12/18 02:43:38;;;;;;;7.07;4.43;;;1.90;93.60;;;;;;5053812;28;20021;-64
2021/12/18 02:46:07;;;;;;;8.65;5.53;;;1.90;93.70;;;;;;5062902;28;20023;-65
2021/12/18 02:48:38;;;;;;;7.15;4.82;;;2.00;93.70;;;;;;5074416;28;20792;-65
2021/12/18 02:51:06;;;;;;;8.52;5.22;;;1.90;93.60;;;;;;5073864;28;20107;-65
2021/12/18 02:53:34;;;;;;;16.92;9.93;;;2.00;93.60;;;;;;5066708;28;20025;-64
2021/12/18 02:56:04;;;;;;;10.93;6.90;;;2.00;93.50;;;;;;5053844;28;20483;-64
2021/12/18 02:58:34;;;;;;;8.73;5.30;;;1.90;93.50;;;;;;5053834;28;20036;-66
2021/12/18 03:01:00;;;;;;;7.65;4.88;;;1.90;93.50;;;;;;5053777;28;20032;-65
2021/12/18 03:03:30;;;;;;;7.68;5.07;;;1.90;93.40;;;;;;5053467;28;20032;-64
2021/12/18 03:06:28;;;;;;;7.20;4.43;;;1.90;93.40;;;;;;5061014;28;20523;-65
2021/12/18 03:09:09;;;;;;;7.65;4.78;;;1.90;93.40;;;;;;5073240;28;20074;-65
2021/12/18 03:25:09;;;;;;;6.78;4.20;;;1.90;93.30;;;;;;5064930;28;20028;-64
2021/12/18 03:27:34;;;;;;;6.78;4.50;;;1.90;93.40;;;;;;5073123;28;20021;-64
2021/12/18 03:30:00;;;;;;;6.93;4.35;;;1.90;93.30;;;;;;5073274;28;20032;-65
2021/12/18 03:32:26;;;;;;;7.60;4.75;;;1.80;93.40;;;;;;5073347;28;20020;-65
2021/12/18 03:34:53;;;;;;;7.53;4.60;;;1.90;93.30;;;;;;5071353;28;20029;-65
2021/12/18 03:37:19;;;;;;;7.20;4.40;;;1.90;93.20;;;;;;5055013;28;20029;-65
2021/12/18 03:39:46;;;;;;;7.32;4.57;;;1.90;93.20;;;;;;5052801;28;20040;-65
2021/12/18 03:42:12;;;;;;;7.40;4.80;;;1.90;93.60;;;;;;5056806;28;20476;-65
2021/12/18 03:44:39;;;;;;;8.25;4.10;;;1.90;93.20;;;;;;5052925;28;20480;-65
2021/12/18 03:47:06;;;;;;;8.02;4.72;;;1.90;93.10;;;;;;5053022;28;20017;-65
2021/12/18 03:49:32;;;;;;;7.50;4.57;;;1.90;93.10;;;;;;5052805;28;20056;-65
2021/12/18 03:51:58;;;;;;;6.95;4.30;;;1.90;93.00;;;;;;5052755;28;20022;-64
2021/12/18 03:54:24;;;;;;;7.05;4.20;;;1.90;92.90;;;;;;5052499;28;20495;-65
2021/12/18 03:56:50;;;;;;;7.05;4.68;;;1.90;92.90;;;;;;5065353;28;20029;-65
2021/12/18 03:59:16;;;;;;;7.72;4.20;;;1.90;93.00;;;;;;5071419;28;20336;-65
2021/12/18 04:01:42;;;;;;;7.72;4.85;;;1.90;93.00;;;;;;5058636;28;20040;-65
2021/12/18 04:04:08;;;;;;;8.02;4.75;;;1.90;92.90;;;;;;5051333;28;20139;-65
2021/12/18 04:06:37;;;;;;;8.18;4.35;;;1.90;93.00;;;;;;5062875;28;20025;-65
2021/12/18 04:09:03;;;;;;;6.97;4.55;;;1.90;92.90;;;;;;5072599;28;20028;-64
2021/12/18 04:11:29;;;;;;;7.75;4.40;;;1.90;92.90;;;;;;5072421;28;20028;-65
2021/12/18 04:13:55;;;;;;;7.85;4.20;;;1.90;92.80;;;;;;5072086;28;20514;-65
2021/12/18 04:16:21;;;;;;;7.47;4.65;;;1.90;92.80;;;;;;5063703;28;20021;-65
2021/12/18 04:18:47;;;;;;;6.55;4.15;;;1.90;92.50;;;;;;5050993;28;20518;-64
2021/12/18 04:21:12;;;;;;;7.38;4.32;;;1.90;92.50;;;;;;5062981;28;20036;-64
2021/12/18 04:23:38;;;;;;;6.95;4.40;;;1.90;92.50;;;;;;5065932;28;20032;-65
2021/12/18 04:26:04;;;;;;;6.80;4.05;;;1.90;92.70;;;;;;5051986;28;20052;-64
2021/12/18 04:28:30;;;;;;;7.47;4.47;;;1.90;92.50;;;;;;5051997;28;20039;-66
2021/12/18 04:30:56;;;;;;;6.90;4.30;;;1.90;92.50;;;;;;5052004;28;20024;-65
2021/12/18 04:33:21;;;;;;;7.00;4.40;;;1.90;92.70;;;;;;5056678;28;20107;-65
2021/12/18 04:35:47;;;;;;;7.18;4.28;;;1.90;92.40;;;;;;5067946;28;20029;-64
2021/12/18 04:38:13;;;;;;;6.40;3.88;;;1.90;92.50;;;;;;5051817;28;20033;-65
2021/12/18 04:40:40;;;;;;;7.10;4.25;;;1.90;92.50;;;;;;5060637;28;20040;-65
2021/12/18 04:43:06;;;;;;;7.07;4.32;;;1.90;92.50;;;;;;5071663;28;20463;-66
2021/12/18 04:45:32;;;;;;;7.18;4.03;;;2.00;92.50;;;;;;5071525;28;20028;-66
2021/12/18 04:47:57;;;;;;;6.45;3.90;;;2.00;92.60;;;;;;5071644;28;20028;-66
2021/12/18 04:50:24;;;;;;;6.40;3.83;;;2.00;92.40;;;;;;5072148;28;20037;-66
2021/12/18 04:52:50;;;;;;;6.00;3.92;;;2.00;92.20;;;;;;5071649;28;20051;-66
2021/12/18 04:55:17;;;;;;;6.95;4.07;;;2.00;92.20;;;;;;5067303;28;20024;-65
2021/12/18 04:57:43;;;;;;;6.53;3.80;;;1.90;92.30;;;;;;5051614;28;20553;-64
2021/12/18 05:00:13;;;;;;;6.18;3.75;;;1.90;92.20;;;;;;5056309;28;20543;-64
2021/12/18 05:02:42;;;;;;;6.63;3.95;;;1.90;92.20;;;;;;5051292;28;20025;-65
2021/12/18 05:05:10;;;;;;;6.00;3.50;;;1.90;92.30;;;;;;5051231;28;20017;-64
2021/12/18 05:07:36;;;;;;;6.00;3.80;;;1.80;92.40;;;;;;5051404;28;20021;-65
2021/12/18 05:10:04;;;;;;;6.10;3.58;;;1.80;92.40;;;;;;5051781;28;20071;-65
2021/12/18 05:12:30;;;;;;;5.40;3.30;;;1.80;92.30;;;;;;5061124;28;20076;-65
2021/12/18 05:14:55;;;;;;;5.95;3.50;;;1.80;92.40;;;;;;5051005;28;20112;-66
2021/12/18 05:17:21;;;;;;;5.45;3.60;;;1.80;92.50;;;;;;5062827;28;20075;-66
2021/12/18 05:19:47;;;;;;;5.90;3.50;;;1.80;92.60;;;;;;5049679;28;20128;-66
2021/12/18 05:22:12;;;;;;;5.72;3.15;;;1.70;92.60;;;;;;5061684;28;20040;-66
2021/12/18 05:24:38;;;;;;;6.40;3.80;;;1.70;92.70;;;;;;5065693;28;20248;-65
2021/12/18 05:27:04;;;;;;;7.55;3.90;;;1.70;92.80;;;;;;5068185;28;20025;-66
2021/12/18 05:29:29;;;;;;;6.07;3.60;;;1.70;93.00;;;;;;5069908;28;20443;-65
2021/12/18 05:31:55;;;;;;;6.00;3.28;;;1.60;93.10;;;;;;5070970;28;20021;-64
2021/12/18 05:34:23;;;;;;;6.03;3.67;;;1.60;93.20;;;;;;5060315;28;20021;-63
2021/12/18 05:39:29;;;;;;;6.15;3.55;;;1.60;93.20;;;;;;5075603;28;20035;-65
2021/12/18 05:41:56;;;;;;;;;;;1.60;93.20;;;;;;5075565;28;20095;-64
2021/12/18 05:44:25;;;;;;;7.00;3.90;;;1.60;93.00;;;;;;5074867;28;19954;-65
2021/12/18 05:46:51;;;;;;;6.47;3.45;;;1.60;92.90;;;;;;5073150;28;20024;-65
2021/12/18 05:49:17;;;;;;;6.65;3.83;;;1.60;92.70;;;;;;5074515;28;20056;-64
2021/12/18 05:51:43;;;;;;;7.18;3.60;;;1.70;92.40;;;;;;5074329;28;20048;-65
2021/12/18 05:54:10;;;;;;;7.28;4.18;;;1.70;92.40;;;;;;5074422;28;20424;-66
2021/12/18 05:56:36;;;;;;;13.65;6.53;;;1.70;92.30;;;;;;5073222;28;20033;-65
2021/12/18 05:59:02;;;;;;;24.08;11.65;;;1.70;92.30;;;;;;5074376;28;20078;-65
2021/12/18 06:01:28;;;;;;;28.02;13.90;;;1.70;92.20;;;;;;5074251;28;20033;-64
2021/12/18 06:03:54;;;;;;;18.52;9.25;;;1.70;92.10;;;;;;5074207;28;20158;-65
2021/12/18 06:06:23;;;;;;;11.50;5.93;;;1.70;92.10;;;;;;5074455;28;20078;-64
2021/12/18 06:08:50;;;;;;;18.25;8.77;;;1.70;91.90;;;;;;5074156;28;20025;-65
2021/12/18 06:11:18;;;;;;;24.08;11.05;;;1.70;91.80;;;;;;5074400;28;20035;-65
2021/12/18 06:13:46;;;;;;;30.98;15.70;;;1.80;91.80;;;;;;5074020;28;20053;-66
2021/12/18 06:16:12;;;;;;;13.55;6.93;;;1.80;91.80;;;;;;5074524;28;20020;-64
2021/12/18 06:18:44;;;;;;;13.40;7.20;;;1.70;91.70;;;;;;5074273;28;20031;-66
2021/12/18 06:21:14;;;;;;;14.90;7.45;;;1.80;91.80;;;;;;5074184;28;20055;-65
2021/12/18 06:23:45;;;;;;;8.52;4.47;;;1.70;91.70;;;;;;5074049;28;20021;-65
2021/12/18 06:26:11;;;;;;;12.93;7.13;;;1.70;91.80;;;;;;5074113;28;20064;-64
2021/12/18 06:28:37;;;;;;;14.82;7.88;;;1.60;92.00;;;;;;5074000;28;20361;-64
2021/12/18 06:31:03;;;;;;;10.27;5.65;;;1.60;92.20;;;;;;5074176;28;20070;-65
2021/12/18 06:33:29;;;;;;;10.82;6.20;;;1.60;92.20;;;;;;5073768;28;20057;-65
2021/12/18 06:35:55;;;;;;;8.57;4.65;;;1.60;92.30;;;;;;5074083;28;20387;-65
2021/12/18 06:38:21;;;;;;;10.05;4.82;;;1.60;92.30;;;;;;5073951;28;20028;-64
2021/12/18 06:40:47;;;;;;;7.07;3.50;;;1.70;92.40;;;;;;5073989;28;20031;-65
2021/12/18 06:43:13;;;;;;;7.72;3.90;;;1.70;92.40;;;;;;5073871;28;20044;-67
2021/12/18 06:45:39;;;;;;;6.20;3.33;;;1.70;92.30;;;;;;5073740;28;20415;-65
2021/12/18 06:48:06;;;;;;;5.88;3.20;;;1.70;92.20;;;;;;5072502;28;20108;-65
2021/12/18 06:50:33;;;;;;;6.18;3.50;;;1.80;91.90;;;;;;5073623;28;20106;-65
2021/12/18 06:52:59;;;;;;;7.75;3.40;;;1.80;91.70;;;;;;5073595;28;20440;-65
2021/12/18 06:55:25;;;;;;;6.80;3.70;;;1.80;91.80;;;;;;5073521;28;20109;-65
2021/12/18 06:57:51;;;;;;;5.93;2.88;;;1.80;91.90;;;;;;5073528;28;20025;-65
2021/12/18 07:00:20;;;;;;;6.38;3.53;;;1.80;92.10;;;;;;5073520;28;20076;-64
2021/12/18 07:02:46;;;;;;;9.88;5.78;;;1.80;91.90;;;;;;5073353;28;20103;-64
2021/12/18 07:05:12;;;;;;;25.65;13.65;;;1.90;91.60;;;;;;5073602;28;20028;-65
2021/12/18 07:07:38;;;;;;;13.57;7.60;;;1.90;91.60;;;;;;5073330;28;20030;-64
2021/12/18 07:10:05;;;;;;;17.10;9.55;;;1.90;91.50;;;;;;5073245;28;20024;-67
2021/12/18 07:12:31;;;;;;;14.25;8.10;;;1.90;91.50;;;;;;5073403;28;20044;-66
2021/12/18 07:14:57;;;;;;;14.15;7.75;;;1.90;91.50;;;;;;5073044;28;20103;-65
2021/12/18 07:17:22;;;;;;;16.20;9.38;;;1.90;91.20;;;;;;5073207;28;20090;-64
2021/12/18 07:19:48;;;;;;;11.98;7.03;;;2.00;91.20;;;;;;5073150;28;20050;-65
2021/12/18 07:22:14;;;;;;;7.75;4.45;;;2.00;91.20;;;;;;5073034;28;20535;-66
2021/12/18 07:24:40;;;;;;;5.90;3.60;;;2.00;90.70;;;;;;5073132;28;20037;-66
2021/12/18 07:27:05;;;;;;;7.13;4.43;;;2.00;90.70;;;;;;5072943;28;20099;-66
2021/12/18 07:29:31;;;;;;;7.30;4.55;;;2.10;90.50;;;;;;5072849;28;20467;-65
2021/12/18 07:31:57;;;;;;;6.40;3.80;;;2.10;90.50;;;;;;5073095;28;20021;-65
2021/12/18 07:34:24;;;;;;;6.63;4.35;;;2.10;90.60;;;;;;5072825;28;20058;-66
2021/12/18 07:36:50;;;;;;;7.32;4.82;;;2.00;90.50;;;;;;5072866;28;20021;-66
2021/12/18 07:39:16;;;;;;;8.98;6.70;;;2.10;90.50;;;;;;5072833;28;20030;-65
2021/12/18 07:41:41;;;;;;;8.65;5.97;;;2.10;90.50;;;;;;5072940;28;20020;-65
2021/12/18 07:44:07;;;;;;;6.18;3.72;;;2.10;90.50;;;;;;5072534;28;20024;-66
2021/12/18 07:46:34;;;;;;;6.32;4.00;;;2.10;90.30;;;;;;5073097;28;20027;-66
2021/12/18 07:49:00;;;;;;;7.57;4.13;;;2.10;90.20;;;;;;5072921;28;20017;-65
2021/12/18 07:51:26;;;;;;;7.13;4.20;;;2.20;90.30;;;;;;5072491;28;20033;-66
2021/12/18 07:53:52;;;;;;;7.32;4.53;;;2.20;90.50;;;;;;5072341;28;20060;-66
2021/12/18 07:56:19;;;;;;;6.60;4.00;;;2.20;90.40;;;;;;5070746;28;20047;-67
2021/12/18 07:58:45;;;;;;;7.28;4.45;;;2.20;90.40;;;;;;5071793;28;20028;-66
2021/12/18 08:01:11;;;;;;;5.65;3.60;;;2.30;90.10;;;;;;5071254;28;20016;-66
2021/12/18 08:03:36;;;;;;;6.63;3.42;;;2.30;90.00;;;;;;5071269;28;20097;-65
2021/12/18 08:06:03;;;;;;;6.18;3.53;;;2.30;90.00;;;;;;5072136;28;20021;-65
2021/12/18 08:08:28;;;;;;;6.18;3.58;;;2.40;89.50;;;;;;5070796;28;20031;-66
2021/12/18 08:10:54;;;;;;;5.80;3.20;;;2.40;89.40;;;;;;5072229;28;20135;-66
2021/12/18 08:13:20;;;;;;;5.32;3.10;;;2.40;88.90;;;;;;5070662;28;20059;-65
2021/12/18 08:15:45;;;;;;;6.10;3.55;;;2.40;88.30;;;;;;5072260;28;20024;-67
2021/12/18 08:18:11;;;;;;;5.88;3.55;;;2.40;88.70;;;;;;5071840;28;20107;-66
2021/12/18 08:20:37;;;;;;;5.72;3.17;;;2.40;89.20;;;;;;5071633;28;20025;-65
2021/12/18 08:23:03;;;;;;;5.32;3.08;;;2.40;88.60;;;;;;5071672;28;20024;-66
2021/12/18 08:25:31;;;;;;;7.20;3.45;;;2.40;88.60;;;;;;5071805;28;20020;-67
2021/12/18 08:28:00;;;;;;;5.45;3.10;;;2.50;87.90;;;;;;5072065;28;20414;-66
2021/12/18 08:30:28;;;;;;;11.68;6.35;;;2.50;87.70;;;;;;5071725;28;20035;-66
2021/12/18 08:32:54;;;;;;;11.43;6.05;;;2.40;87.80;;;;;;5069096;28;20050;-65
2021/12/18 08:35:20;;;;;;;24.20;12.63;;;2.50;87.50;;;;;;5051794;28;20531;-66
2021/12/18 08:37:45;;;;;;;16.00;8.77;;;2.40;87.80;;;;;;5051804;28;20021;-67
2021/12/18 08:40:12;;;;;;;13.45;7.15;;;2.40;87.90;;;;;;5051763;28;20029;-69
2021/12/18 08:42:39;;;;;;;14.65;7.55;;;2.40;87.70;;;;;;5050228;28;20039;-66
2021/12/18 08:45:05;;;;;;;8.45;4.43;;;2.40;87.20;;;;;;5051698;28;20025;-68
2021/12/18 08:47:31;;;;;;;41.15;20.25;;;2.40;86.90;;;;;;5051554;28;20076;-65
2021/12/18 08:49:57;;;;;;;13.18;6.72;;;2.40;86.80;;;;;;5050404;28;20025;-66
2021/12/18 08:52:22;;;;;;;8.55;4.40;;;2.40;86.20;;;;;;5050086;28;20036;-67
2021/12/18 08:54:49;;;;;;;21.00;10.65;;;2.40;86.40;;;;;;5051458;28;20036;-65
2021/12/18 08:57:15;;;;;;;15.68;8.10;;;2.40;86.30;;;;;;5051461;28;20064;-66
2021/12/18 08:59:41;;;;;;;21.13;10.52;;;2.30;85.90;;;;;;5051480;28;20422;-66
2021/12/18 09:02:08;;;;;;;21.38;10.88;;;2.40;85.20;;;;;;5051393;28;20036;-65
2021/12/18 09:04:35;;;;;;;9.93;5.00;;;2.30;85.40;;;;;;5050316;28;20036;-66
2021/12/18 09:07:02;;;;;;;8.10;3.78;;;2.30;85.20;;;;;;5051389;28;20092;-66
2021/12/18 09:09:27;;;;;;;11.95;6.20;;;2.30;85.00;;;;;;5051328;28;20029;-65
2021/12/18 09:11:53;;;;;;;10.27;5.00;;;2.30;85.50;;;;;;5050130;28;20031;-67
2021/12/18 09:14:19;;;;;;;16.50;7.45;;;2.20;85.60;;;;;;5050903;28;20128;-66
2021/12/18 09:16:45;;;;;;;14.77;6.47;;;2.30;85.40;;;;;;5051384;28;20461;-65
2021/12/18 09:19:10;;;;;;;27.10;13.13;;;2.30;85.40;;;;;;5051045;28;20104;-66
2021/12/18 09:21:36;;;;;;;32.92;16.58;;;2.30;85.40;;;;;;5051364;28;20452;-66
2021/12/18 09:24:03;;;;;;;30.67;14.77;;;2.30;85.40;;;;;;5051208;28;20136;-66
2021/12/18 09:26:28;;;;;;;23.33;11.15;;;2.30;85.50;;;;;;5050199;28;20033;-65
2021/12/18 09:28:54;;;;;;;15.82;8.00;;;2.30;85.00;;;;;;5050999;28;20040;-65
2021/12/18 09:31:20;;;;;;;40.33;19.02;;;2.30;85.00;;;;;;5051076;28;20536;-66
2021/12/18 09:33:46;;;;;;;20.83;10.52;;;2.30;85.00;;;;;;5060664;28;20053;-66
2021/12/18 09:36:11;;;;;;;18.58;10.02;;;2.30;85.00;;;;;;5071045;28;20037;-67
2021/12/18 09:38:37;;;;;;;12.45;6.43;;;2.30;84.60;;;;;;5070825;28;20024;-66
2021/12/18 09:41:03;;;;;;;9.85;4.93;;;2.30;84.60;;;;;;5071058;28;20029;-66
2021/12/18 09:43:29;;;;;;;21.90;11.27;;;2.30;85.00;;;;;;5071008;28;20054;-67
2021/12/18 09:46:07;;;;;;;35.53;18.55;;;2.30;84.60;;;;;;5070733;28;20020;-65
2021/12/18 09:48:34;;;;;;;18.13;9.93;;;2.20;84.30;;;;;;5071053;28;20446;-67
2021/12/18 09:51:11;;;;;;;11.93;5.97;;;2.20;84.60;;;;;;5071168;28;20525;-66
2021/12/18 09:53:38;;;;;;;13.95;6.63;;;2.20;84.20;;;;;;5070892;28;20032;-66
2021/12/18 09:56:04;;;;;;;12.68;6.90;;;2.10;84.10;;;;;;5051469;28;20132;-66
2021/12/18 09:58:31;;;;;;;10.45;5.47;;;2.10;84.50;;;;;;5050706;28;20022;-66
2021/12/18 10:00:56;;;;;;;9.70;5.07;;;2.00;85.00;;;;;;5050750;28;20512;-67
2021/12/18 10:03:49;;;;;;;12.30;6.07;;;2.00;84.90;;;;;;5050610;28;20159;-65
2021/12/18 10:06:41;;;;;;;12.77;6.65;;;2.00;84.20;;;;;;5050821;28;20485;-65
2021/12/18 10:09:10;;;;;;;14.07;7.05;;;2.10;84.50;;;;;;5050668;28;20033;-65
2021/12/18 10:11:57;;;;;;;17.15;8.38;;;2.00;84.40;;;;;;5050709;28;20100;-66
2021/12/18 10:14:36;;;;;;;15.05;7.47;;;2.00;83.40;;;;;;5050340;28;20051;-66
2021/12/18 10:17:03;;;;;;;20.38;10.18;;;2.00;83.90;;;;;;5050792;28;20021;-67
2021/12/18 10:19:34;;;;;;;25.20;12.55;;;2.10;83.70;;;;;;5050411;28;20503;-67
2021/12/18 10:22:01;;;;;;;12.13;6.40;;;2.10;83.00;;;;;;5052165;28;20389;-65
2021/12/18 10:24:28;;;;;;;13.48;7.05;;;2.10;82.60;;;;;;5054335;28;20107;-66
2021/12/18 10:26:54;;;;;;;12.45;6.97;;;2.10;82.70;;;;;;5054481;28;20021;-65
2021/12/18 10:29:30;;;;;;;26.90;15.20;;;2.00;82.90;;;;;;5054198;28;20031;-65
2021/12/18 10:32:02;;;;;;;15.60;9.35;;;2.00;83.50;;;;;;5054160;28;20032;-67
2021/12/18 10:34:28;;;;;;;17.05;9.27;;;2.00;82.60;;;;;;5069598;28;20067;-65
2021/12/18 10:37:26;;;;;;;9.80;4.82;;;2.00;81.80;;;;;;5060851;28;20104;-66
2021/12/18 10:39:54;;;;;;;11.95;5.53;;;2.00;81.40;;;;;;5041251;28;20068;-66
2021/12/18 10:42:20;;;;;;;8.05;3.80;;;2.00;81.90;;;;;;5053731;28;20033;-66
2021/12/18 10:45:07;;;;;;;7.32;3.50;;;2.00;81.60;;;;;;5053765;28;20353;-66
2021/12/18 10:48:03;;;;;;;5.13;2.20;;;2.00;80.70;;;;;;5053745;28;20017;-66
2021/12/18 10:50:38;;;;;;;11.50;5.00;;;2.00;79.70;;;;;;5053337;28;20110;-67
2021/12/18 10:53:12;;;;;;;6.13;2.80;;;2.00;79.40;;;;;;5053746;28;20206;-68
2021/12/18 10:55:54;;;;;;;14.18;5.53;;;1.90;79.00;;;;;;5053923;28;20025;-66
2021/12/18 10:58:32;;;;;;;10.35;4.90;;;2.00;79.70;;;;;;5053683;28;20036;-66
2021/12/18 11:01:26;;;;;;;6.05;3.33;;;2.00;78.30;;;;;;5054352;28;20029;-65
2021/12/18 11:03:52;;;;;;;4.63;2.40;;;2.00;78.00;;;;;;5050470;28;20036;-66
2021/12/18 11:06:20;;;;;;;9.20;5.80;;;1.90;78.40;;;;;;5053604;28;20151;-66
2021/12/18 11:09:12;;;;;;;7.00;4.25;;;1.90;78.40;;;;;;5053611;28;20419;-67
2021/12/18 11:14:41;;;;;;;15.70;8.32;;;1.90;78.30;;;;;;5053473;28;20532;-66
2021/12/18 11:17:13;;;;;;;22.13;11.45;;;1.80;79.10;;;;;;5053437;28;20025;-67
2021/12/18 11:19:40;;;;;;;17.10;9.15;;;1.80;78.30;;;;;;5053303;28;20029;-66
2021/12/18 11:22:12;;;;;;;20.40;11.35;;;1.80;78.70;;;;;;5051979;28;20384;-67
2021/12/18 11:24:57;;;;;;;12.25;6.65;;;1.80;78.80;;;;;;5053119;28;20068;-66
2021/12/18 11:27:24;;;;;;;18.13;9.55;;;1.80;78.80;;;;;;5053301;28;20029;-67
2021/12/18 11:30:12;;;;;;;21.17;12.68;;;1.80;78.40;;;;;;5052972;28;20045;-66
2021/12/18 11:32:46;;;;;;;13.98;7.88;;;1.70;78.40;;;;;;5053300;28;20029;-66
2021/12/18 11:35:14;;;;;;;13.77;6.15;;;1.70;78.30;;;;;;5071749;28;20021;-66
2021/12/18 11:37:55;;;;;;;9.30;5.35;;;1.60;78.70;;;;;;5072824;28;20031;-67
2021/12/18 11:40:31;;;;;;;5.30;2.65;;;1.60;78.80;;;;;;5072734;28;20036;-66
2021/12/18 11:42:57;;;;;;;4.30;2.00;;;1.60;78.80;;;;;;5072719;28;20028;-67
2021/12/18 11:45:32;;;;;;;3.50;1.80;;;1.60;78.60;;;;;;5072839;28;20017;-68
2021/12/18 11:48:01;;;;;;;4.15;1.90;;;1.60;79.00;;;;;;5072775;28;20380;-67
2021/12/18 11:50:31;;;;;;;4.20;2.20;;;1.60;79.30;;;;;;5072699;28;20029;-67
2021/12/18 11:53:13;;;;;;;3.42;1.63;;;1.50;79.70;;;;;;5072550;28;20103;-66
2021/12/18 11:55:51;;;;;;;4.10;2.00;;;1.50;79.70;;;;;;5072622;28;20028;-67
2021/12/18 11:58:30;;;;;;;4.30;1.90;;;1.50;79.80;;;;;;5072211;28;20020;-65
2021/12/18 12:01:02;;;;;;;4.78;2.10;;;1.50;78.90;;;;;;5072503;28;20380;-64
2021/12/18 12:03:38;;;;;;;4.47;2.30;;;1.50;79.50;;;;;;5072256;28;20464;-66
2021/12/18 12:06:32;;;;;;;3.60;1.83;;;1.50;79.50;;;;;;5070985;28;20032;-67
2021/12/18 12:11:54;;;;;;;5.10;2.70;;;1.50;77.20;;;;;;5070304;28;20123;-67
2021/12/18 12:14:22;;;;;;;5.63;2.90;;;1.50;77.00;;;;;;5072053;28;20071;-66
2021/12/18 12:16:48;;;;;;;16.23;7.68;;;1.50;76.90;;;;;;5072128;28;20099;-67
2021/12/18 12:19:18;;;;;;;11.23;6.05;;;1.40;77.10;;;;;;5072135;28;20029;-68
2021/12/18 12:21:49;;;;;;;9.43;5.75;;;1.40;76.80;;;;;;5071090;28;20032;-66
2021/12/18 12:24:21;;;;;;;12.70;8.00;;;1.40;77.10;;;;;;5071691;28;20435;-68
2021/12/18 12:26:49;;;;;;;10.90;6.30;;;1.40;77.40;;;;;;5071999;28;20107;-66
2021/12/18 12:29:16;;;;;;;24.48;14.05;;;1.40;76.90;;;;;;5071982;28;20418;-69
2021/12/18 12:32:00;;;;;;;21.52;13.82;;;1.40;76.10;;;;;;5072120;28;20410;-66
2021/12/18 12:34:31;;;;;;;15.05;7.30;;;1.40;76.50;;;;;;5071985;28;20495;-66
2021/12/18 12:37:23;;;;;;;15.07;9.00;;;1.30;76.20;;;;;;5071756;28;20028;-67
2021/12/18 12:39:57;;;;;;;13.10;7.30;;;1.30;76.30;;;;;;5071621;28;20078;-66
2021/12/18 12:42:23;;;;;;;25.67;14.63;;;1.30;76.10;;;;;;5070182;28;20025;-67
2021/12/18 12:45:01;;;;;;;16.92;9.32;;;1.30;76.10;;;;;;5071402;28;20028;-68
2021/12/18 12:47:28;;;;;;;17.10;9.13;;;1.30;76.00;;;;;;5070931;28;20028;-67
2021/12/18 12:50:01;;;;;;;6.78;3.30;;;1.30;76.10;;;;;;5072072;28;20447;-68
2021/12/18 12:52:28;;;;;;;5.55;2.80;;;1.30;75.00;;;;;;5071642;28;20032;-67
2021/12/18 12:55:06;;;;;;;5.55;2.80;;;1.30;75.30;;;;;;5071628;28;20017;-67
2021/12/18 12:57:31;;;;;;;4.28;1.90;;;1.30;75.50;;;;;;5072115;28;20029;-67
2021/12/18 13:00:06;;;;;;;6.50;2.88;;;1.30;75.50;;;;;;5071528;28;20052;-68
2021/12/18 13:02:48;;;;;;;6.93;3.08;;;1.30;75.50;;;;;;5071563;28;20024;-67
2021/12/18 13:05:15;;;;;;;9.45;4.10;;;1.30;75.60;;;;;;5071825;28;20434;-67
2021/12/18 13:07:58;;;;;;;6.80;3.30;;;1.20;76.10;;;;;;5070628;28;20903;-67
2021/12/18 13:10:27;;;;;;;12.13;5.85;;;1.20;76.50;;;;;;5071293;28;20029;-67
2021/12/18 13:13:02;;;;;;;8.52;3.92;;;1.20;76.80;;;;;;5071199;28;20044;-66
2021/12/18 13:15:44;;;;;;;5.97;2.55;;;1.30;76.90;;;;;;5071275;28;20109;-66
2021/12/18 13:18:10;;;;;;;3.78;1.90;;;1.20;77.00;;;;;;5071459;28;20099;-67
2021/12/18 13:20:55;;;;;;;4.75;2.10;;;1.20;77.20;;;;;;5071163;28;20025;-66
2021/12/18 13:23:22;;;;;;;4.43;2.10;;;1.20;77.40;;;;;;5071024;28;20020;-66
2021/12/18 13:25:53;;;;;;;5.07;2.55;;;1.20;78.00;;;;;;5071151;28;20021;-66
2021/12/18 13:28:21;;;;;;;5.20;2.50;;;1.10;78.50;;;;;;5070683;28;20021;-66
2021/12/18 13:30:48;;;;;;;6.65;3.20;;;1.20;79.00;;;;;;5071982;28;20056;-67
2021/12/18 13:33:14;;;;;;;5.32;2.60;;;1.10;79.40;;;;;;5065056;28;20021;-66
2021/12/18 13:35:40;;;;;;;5.03;2.70;;;1.10;79.60;;;;;;5051489;28;20025;-66
2021/12/18 13:38:08;;;;;;;5.55;2.55;;;1.10;79.80;;;;;;5050627;28;20097;-67
2021/12/18 13:40:44;;;;;;;4.90;2.20;;;1.10;80.10;;;;;;5050757;28;20032;-67
2021/12/18 13:43:20;;;;;;;5.53;2.70;;;1.00;80.10;;;;;;5050512;28;20140;-66
2021/12/18 13:46:03;;;;;;;6.70;3.60;;;1.00;80.60;;;;;;5050837;28;20044;-66
2021/12/18 13:48:36;;;;;;;5.03;2.63;;;1.00;80.90;;;;;;5050784;28;20017;-66
2021/12/18 13:51:11;;;;;;;9.52;4.88;;;1.00;81.20;;;;;;5050798;28;20079;-66
2021/12/18 13:54:00;;;;;;;7.60;3.70;;;1.00;81.40;;;;;;5050559;28;20029;-67
2021/12/18 13:56:31;;;;;;;12.00;6.03;;;0.90;81.40;;;;;;5050507;28;20380;-68